sensor_id;sensor_type;location;lat;lon;timestamp;temperature;humidity
13569;DHT22;6856;51.460;7.158;2022-08-19T03:47:40;21.20;57.90
13569;DHT22;6856;51.460;7.158;2022-08-19T03:50:13;21.10;58.10
13569;DHT22;6856;51.460;7.158;2022-08-19T03:52:49;21.10;58.30
13569;DHT22;6856;51.460;7.158;2022-08-19T03:55:23;21.10;58.50
13569;DHT22;6856;51.460;7.158;2022-08-19T03:57:57;21.10;58.40
13569;DHT22;6856;51.460;7.158;2022-08-19T04:00:31;21.10;58.50
13569;DHT22;6856;51.460;7.158;2022-08-19T04:03:08;21.10;58.30
13569;DHT22;6856;51.460;7.158;2022-08-19T04:05:42;21.10;58.70
13569;DHT22;6856;51.460;7.158;2022-08-19T04:08:16;21.10;58.70
13569;DHT22;6856;51.460;7.158;2022-08-19T04:10:50;21.10;58.80
13569;DHT22;6856;51.460;7.158;2022-08-19T04:13:25;21.10;58.80
13569;DHT22;6856;51.460;7.158;2022-08-19T04:16:00;21.10;58.70
13569;DHT22;6856;51.460;7.158;2022-08-19T04:18:36;21.00;58.60
13569;DHT22;6856;51.460;7.158;2022-08-19T04:21:16;21.10;58.70
13569;DHT22;6856;51.460;7.158;2022-08-19T04:23:53;21.00;58.80
13569;DHT22;6856;51.460;7.158;2022-08-19T04:26:31;21.00;58.80
13569;DHT22;6856;51.460;7.158;2022-08-19T04:29:08;21.00;58.90
13569;DHT22;6856;51.460;7.158;2022-08-19T04:31:44;21.00;58.70
13569;DHT22;6856;51.460;7.158;2022-08-19T04:34:20;21.00;59.00
13569;DHT22;6856;51.460;7.158;2022-08-19T04:36:58;21.00;59.00
13569;DHT22;6856;51.460;7.158;2022-08-19T04:39:32;21.00;58.90
13569;DHT22;6856;51.460;7.158;2022-08-19T04:42:19;21.00;59.00
13569;DHT22;6856;51.460;7.158;2022-08-19T04:45:13;21.00;59.00
13569;DHT22;6856;51.460;7.158;2022-08-19T04:47:48;21.00;59.30
13569;DHT22;6856;51.460;7.158;2022-08-19T04:50:44;21.00;59.40
13569;DHT22;6856;51.460;7.158;2022-08-19T04:53:18;21.00;59.50
13569;DHT22;6856;51.460;7.158;2022-08-19T04:55:51;21.00;59.70
13569;DHT22;6856;51.460;7.158;2022-08-19T04:58:27;21.00;59.90
13569;DHT22;6856;51.460;7.158;2022-08-19T05:01:01;21.10;60.20
13569;DHT22;6856;51.460;7.158;2022-08-19T05:03:34;21.10;60.30
13569;DHT22;6856;51.460;7.158;2022-08-19T05:06:14;21.10;60.40
13569;DHT22;6856;51.460;7.158;2022-08-19T05:08:49;21.10;60.80
13569;DHT22;6856;51.460;7.158;2022-08-19T05:11:31;21.10;61.40
13569;DHT22;6856;51.460;7.158;2022-08-19T05:14:07;21.20;60.80
13569;DHT22;6856;51.460;7.158;2022-08-19T05:17:00;21.20;61.00
13569;DHT22;6856;51.460;7.158;2022-08-19T05:19:54;21.20;60.80
13569;DHT22;6856;51.460;7.158;2022-08-19T05:22:48;21.20;61.20
13569;DHT22;6856;51.460;7.158;2022-08-19T05:25:22;21.20;61.30
13569;DHT22;6856;51.460;7.158;2022-08-19T05:27:57;21.30;61.40
13569;DHT22;6856;51.460;7.158;2022-08-19T05:30:31;21.30;61.50
13569;DHT22;6856;51.460;7.158;2022-08-19T05:33:18;21.30;61.60
13569;DHT22;6856;51.460;7.158;2022-08-19T05:35:53;21.40;61.90
13569;DHT22;6856;51.460;7.158;2022-08-19T05:38:29;21.40;62.00
13569;DHT22;6856;51.460;7.158;2022-08-19T05:41:07;21.40;62.30
13569;DHT22;6856;51.460;7.158;2022-08-19T05:43:42;21.50;62.60
13569;DHT22;6856;51.460;7.158;2022-08-19T05:46:18;21.50;62.60
13569;DHT22;6856;51.460;7.158;2022-08-19T05:48:59;21.50;62.80
13569;DHT22;6856;51.460;7.158;2022-08-19T05:51:33;21.60;62.70
13569;DHT22;6856;51.460;7.158;2022-08-19T05:54:11;21.70;63.10
13569;DHT22;6856;51.460;7.158;2022-08-19T05:56:46;21.70;63.00
13569;DHT22;6856;51.460;7.158;2022-08-19T05:59:21;21.80;62.60
13569;DHT22;6856;51.460;7.158;2022-08-19T06:01:55;21.80;63.30
13569;DHT22;6856;51.460;7.158;2022-08-19T06:04:29;21.90;63.10
13569;DHT22;6856;51.460;7.158;2022-08-19T06:07:03;22.00;63.10
13569;DHT22;6856;51.460;7.158;2022-08-19T06:09:45;22.00;63.00
13569;DHT22;6856;51.460;7.158;2022-08-19T06:12:32;22.10;63.20
13569;DHT22;6856;51.460;7.158;2022-08-19T06:15:09;22.10;63.10
13569;DHT22;6856;51.460;7.158;2022-08-19T06:17:45;22.20;63.20
13569;DHT22;6856;51.460;7.158;2022-08-19T06:20:19;22.30;63.20
13569;DHT22;6856;51.460;7.158;2022-08-19T06:23:12;22.30;63.30
13569;DHT22;6856;51.460;7.158;2022-08-19T06:25:49;22.40;63.20
13569;DHT22;6856;51.460;7.158;2022-08-19T06:28:23;22.40;63.00
13569;DHT22;6856;51.460;7.158;2022-08-19T06:30:56;22.50;63.00
13569;DHT22;6856;51.460;7.158;2022-08-19T06:33:30;22.60;62.90
13569;DHT22;6856;51.460;7.158;2022-08-19T06:36:04;22.60;62.70
13569;DHT22;6856;51.460;7.158;2022-08-19T06:38:38;22.70;62.60
13569;DHT22;6856;51.460;7.158;2022-08-19T06:41:13;22.70;62.60
13569;DHT22;6856;51.460;7.158;2022-08-19T06:43:47;22.80;62.70
13569;DHT22;6856;51.460;7.158;2022-08-19T06:46:25;22.80;62.50
13569;DHT22;6856;51.460;7.158;2022-08-19T06:49:00;22.90;62.70
13569;DHT22;6856;51.460;7.158;2022-08-19T06:51:34;22.90;62.40
13569;DHT22;6856;51.460;7.158;2022-08-19T06:54:16;23.00;62.30
13569;DHT22;6856;51.460;7.158;2022-08-19T06:56:53;23.10;62.90
13569;DHT22;6856;51.460;7.158;2022-08-19T06:59:26;23.00;62.10
13569;DHT22;6856;51.460;7.158;2022-08-19T07:02:03;23.00;62.00
13569;DHT22;6856;51.460;7.158;2022-08-19T07:04:39;23.10;62.10
13569;DHT22;6856;51.460;7.158;2022-08-19T07:07:14;23.10;62.10
13569;DHT22;6856;51.460;7.158;2022-08-19T07:09:51;23.10;62.10
13569;DHT22;6856;51.460;7.158;2022-08-19T07:12:33;23.20;62.10
13569;DHT22;6856;51.460;7.158;2022-08-19T07:15:10;23.20;62.20
13569;DHT22;6856;51.460;7.158;2022-08-19T07:17:44;23.20;62.20
13569;DHT22;6856;51.460;7.158;2022-08-19T07:20:23;23.30;62.20
13569;DHT22;6856;51.460;7.158;2022-08-19T07:23:00;23.30;62.20
13569;DHT22;6856;51.460;7.158;2022-08-19T07:25:38;23.30;62.20
13569;DHT22;6856;51.460;7.158;2022-08-19T07:28:13;23.40;62.30
13569;DHT22;6856;51.460;7.158;2022-08-19T07:31:01;23.40;62.50
13569;DHT22;6856;51.460;7.158;2022-08-19T07:33:37;23.50;62.70
13569;DHT22;6856;51.460;7.158;2022-08-19T07:36:12;23.60;62.50
13569;DHT22;6856;51.460;7.158;2022-08-19T07:38:50;23.70;62.70
13569;DHT22;6856;51.460;7.158;2022-08-19T07:41:28;23.70;62.60
13569;DHT22;6856;51.460;7.158;2022-08-19T07:44:06;23.80;62.50
13569;DHT22;6856;51.460;7.158;2022-08-19T07:46:43;23.90;62.40
13569;DHT22;6856;51.460;7.158;2022-08-19T07:49:22;24.00;62.30
13569;DHT22;6856;51.460;7.158;2022-08-19T07:51:58;24.10;62.00
13569;DHT22;6856;51.460;7.158;2022-08-19T07:54:37;24.00;61.50
13569;DHT22;6856;51.460;7.158;2022-08-19T07:57:12;24.30;61.40
13569;DHT22;6856;51.460;7.158;2022-08-19T07:59:47;24.30;61.30
13569;DHT22;6856;51.460;7.158;2022-08-19T08:02:21;24.40;61.10
13569;DHT22;6856;51.460;7.158;2022-08-19T08:04:55;24.50;60.60
13569;DHT22;6856;51.460;7.158;2022-08-19T08:07:49;24.50;60.90
13569;DHT22;6856;51.460;7.158;2022-08-19T08:10:40;24.60;60.90
13569;DHT22;6856;51.460;7.158;2022-08-19T08:13:22;24.60;60.90
13569;DHT22;6856;51.460;7.158;2022-08-19T08:15:58;24.70;61.10
13569;DHT22;6856;51.460;7.158;2022-08-19T08:18:32;24.80;60.90
13569;DHT22;6856;51.460;7.158;2022-08-19T08:21:13;24.90;60.90
13569;DHT22;6856;51.460;7.158;2022-08-19T08:23:46;25.00;60.80
13569;DHT22;6856;51.460;7.158;2022-08-19T08:26:23;25.10;60.40
13569;DHT22;6856;51.460;7.158;2022-08-19T08:28:59;25.20;60.30
13569;DHT22;6856;51.460;7.158;2022-08-19T08:31:44;25.30;60.00
13569;DHT22;6856;51.460;7.158;2022-08-19T08:34:20;25.40;60.10
13569;DHT22;6856;51.460;7.158;2022-08-19T08:36:53;25.50;59.80
13569;DHT22;6856;51.460;7.158;2022-08-19T08:39:27;25.60;59.60
13569;DHT22;6856;51.460;7.158;2022-08-19T08:42:10;25.70;59.30
13569;DHT22;6856;51.460;7.158;2022-08-19T08:44:53;25.80;59.30
13569;DHT22;6856;51.460;7.158;2022-08-19T08:47:34;25.90;59.20
13569;DHT22;6856;51.460;7.158;2022-08-19T08:50:16;26.00;58.90
13569;DHT22;6856;51.460;7.158;2022-08-19T08:52:54;26.00;58.80
13569;DHT22;6856;51.460;7.158;2022-08-19T08:55:29;26.10;59.00
13569;DHT22;6856;51.460;7.158;2022-08-19T08:58:13;26.10;58.70
13569;DHT22;6856;51.460;7.158;2022-08-19T09:00:49;26.30;58.30
13569;DHT22;6856;51.460;7.158;2022-08-19T09:03:26;26.30;58.20
13569;DHT22;6856;51.460;7.158;2022-08-19T09:06:04;26.40;58.30
13569;DHT22;6856;51.460;7.158;2022-08-19T09:08:49;26.40;58.30
13569;DHT22;6856;51.460;7.158;2022-08-19T09:11:50;26.60;58.10
13569;DHT22;6856;51.460;7.158;2022-08-19T09:14:41;26.70;57.90
13569;DHT22;6856;51.460;7.158;2022-08-19T09:17:24;26.80;57.70
13569;DHT22;6856;51.460;7.158;2022-08-19T09:20:06;26.90;57.20
13569;DHT22;6856;51.460;7.158;2022-08-19T09:22:49;26.90;56.60
13569;DHT22;6856;51.460;7.158;2022-08-19T09:25:23;26.90;56.90
13569;DHT22;6856;51.460;7.158;2022-08-19T09:28:00;27.00;56.90
13569;DHT22;6856;51.460;7.158;2022-08-19T09:30:53;27.10;56.60
13569;DHT22;6856;51.460;7.158;2022-08-19T09:33:27;27.20;56.20
13569;DHT22;6856;51.460;7.158;2022-08-19T09:36:05;27.30;56.80
13569;DHT22;6856;51.460;7.158;2022-08-19T09:38:40;27.40;55.60
13569;DHT22;6856;51.460;7.158;2022-08-19T09:41:16;27.50;55.60
13569;DHT22;6856;51.460;7.158;2022-08-19T09:43:54;27.60;55.60
13569;DHT22;6856;51.460;7.158;2022-08-19T09:46:29;27.70;54.60
13569;DHT22;6856;51.460;7.158;2022-08-19T09:49:03;27.70;54.60
13569;DHT22;6856;51.460;7.158;2022-08-19T09:51:39;27.70;54.50
13569;DHT22;6856;51.460;7.158;2022-08-19T09:54:14;27.70;54.00
13569;DHT22;6856;51.460;7.158;2022-08-19T09:56:55;27.70;54.10
13569;DHT22;6856;51.460;7.158;2022-08-19T09:59:35;27.60;54.20
13569;DHT22;6856;51.460;7.158;2022-08-19T10:02:09;27.70;54.30
13569;DHT22;6856;51.460;7.158;2022-08-19T10:04:43;27.70;54.30
13569;DHT22;6856;51.460;7.158;2022-08-19T10:07:36;27.70;54.10
13569;DHT22;6856;51.460;7.158;2022-08-19T10:10:15;27.80;54.30
13569;DHT22;6856;51.460;7.158;2022-08-19T10:12:50;27.80;53.80
13569;DHT22;6856;51.460;7.158;2022-08-19T10:15:26;27.90;53.70
13569;DHT22;6856;51.460;7.158;2022-08-19T10:18:20;27.90;53.60
13569;DHT22;6856;51.460;7.158;2022-08-19T10:21:04;28.00;53.40
13569;DHT22;6856;51.460;7.158;2022-08-19T10:23:46;28.10;53.10
13569;DHT22;6856;51.460;7.158;2022-08-19T10:26:25;28.20;53.50
13569;DHT22;6856;51.460;7.158;2022-08-19T10:29:00;28.30;53.00
13569;DHT22;6856;51.460;7.158;2022-08-19T10:31:37;28.40;52.70
13569;DHT22;6856;51.460;7.158;2022-08-19T10:34:31;28.50;52.90
13569;DHT22;6856;51.460;7.158;2022-08-19T10:37:05;28.60;52.90
13569;DHT22;6856;51.460;7.158;2022-08-19T10:39:46;28.70;52.30
13569;DHT22;6856;51.460;7.158;2022-08-19T10:42:20;28.80;51.80
13569;DHT22;6856;51.460;7.158;2022-08-19T10:44:54;28.80;51.60
13569;DHT22;6856;51.460;7.158;2022-08-19T10:47:29;28.90;51.60
13569;DHT22;6856;51.460;7.158;2022-08-19T10:50:06;29.00;51.10
13569;DHT22;6856;51.460;7.158;2022-08-19T10:53:03;29.00;51.20
13569;DHT22;6856;51.460;7.158;2022-08-19T10:55:44;29.10;50.70
13569;DHT22;6856;51.460;7.158;2022-08-19T10:58:42;29.10;50.70
13569;DHT22;6856;51.460;7.158;2022-08-19T11:01:16;29.10;50.50
13569;DHT22;6856;51.460;7.158;2022-08-19T11:03:50;29.10;50.00
13569;DHT22;6856;51.460;7.158;2022-08-19T11:06:24;29.10;49.90
13569;DHT22;6856;51.460;7.158;2022-08-19T11:09:01;29.10;49.90
13569;DHT22;6856;51.460;7.158;2022-08-19T11:11:36;29.00;49.80
13569;DHT22;6856;51.460;7.158;2022-08-19T11:14:15;29.00;50.10
13569;DHT22;6856;51.460;7.158;2022-08-19T11:16:52;28.90;50.20
13569;DHT22;6856;51.460;7.158;2022-08-19T11:19:27;28.90;49.90
13569;DHT22;6856;51.460;7.158;2022-08-19T11:22:02;28.80;49.70
13569;DHT22;6856;51.460;7.158;2022-08-19T11:24:36;28.80;49.90
13569;DHT22;6856;51.460;7.158;2022-08-19T11:27:11;28.80;49.20
13569;DHT22;6856;51.460;7.158;2022-08-19T11:29:46;28.80;49.70
13569;DHT22;6856;51.460;7.158;2022-08-19T11:32:20;28.80;49.60
13569;DHT22;6856;51.460;7.158;2022-08-19T11:34:53;28.90;49.60
13569;DHT22;6856;51.460;7.158;2022-08-19T11:37:27;29.00;49.50
13569;DHT22;6856;51.460;7.158;2022-08-19T11:40:00;29.10;49.50
13569;DHT22;6856;51.460;7.158;2022-08-19T11:42:35;29.20;49.50
13569;DHT22;6856;51.460;7.158;2022-08-19T11:45:23;29.30;49.20
13569;DHT22;6856;51.460;7.158;2022-08-19T11:47:57;29.40;49.50
13569;DHT22;6856;51.460;7.158;2022-08-19T11:50:31;29.60;49.10
13569;DHT22;6856;51.460;7.158;2022-08-19T11:53:04;29.60;48.90
13569;DHT22;6856;51.460;7.158;2022-08-19T11:55:40;29.70;48.60
13569;DHT22;6856;51.460;7.158;2022-08-19T11:58:23;29.70;48.20
13569;DHT22;6856;51.460;7.158;2022-08-19T12:00:58;29.80;48.20
13569;DHT22;6856;51.460;7.158;2022-08-19T12:03:31;29.80;48.10
13569;DHT22;6856;51.460;7.158;2022-08-19T12:06:06;29.90;47.60
13569;DHT22;6856;51.460;7.158;2022-08-19T12:08:42;30.00;47.30
13569;DHT22;6856;51.460;7.158;2022-08-19T12:11:17;30.00;47.20
13569;DHT22;6856;51.460;7.158;2022-08-19T12:13:52;30.10;47.00
13569;DHT22;6856;51.460;7.158;2022-08-19T12:16:28;30.10;46.70
13569;DHT22;6856;51.460;7.158;2022-08-19T12:19:04;30.20;46.60
13569;DHT22;6856;51.460;7.158;2022-08-19T12:21:38;30.20;46.70
13569;DHT22;6856;51.460;7.158;2022-08-19T12:24:12;30.20;46.50
13569;DHT22;6856;51.460;7.158;2022-08-19T12:26:45;30.20;46.30
13569;DHT22;6856;51.460;7.158;2022-08-19T12:29:26;30.20;46.20
13569;DHT22;6856;51.460;7.158;2022-08-19T12:32:00;30.30;46.20
13569;DHT22;6856;51.460;7.158;2022-08-19T12:34:34;30.40;45.90
13569;DHT22;6856;51.460;7.158;2022-08-19T12:37:09;30.40;45.60
13569;DHT22;6856;51.460;7.158;2022-08-19T12:39:44;30.40;45.60
13569;DHT22;6856;51.460;7.158;2022-08-19T12:42:21;30.30;45.40
13569;DHT22;6856;51.460;7.158;2022-08-19T12:44:56;30.30;45.30
13569;DHT22;6856;51.460;7.158;2022-08-19T12:47:30;30.30;45.60
13569;DHT22;6856;51.460;7.158;2022-08-19T12:50:04;30.40;45.20
13569;DHT22;6856;51.460;7.158;2022-08-19T12:52:40;30.50;45.30
13569;DHT22;6856;51.460;7.158;2022-08-19T12:55:15;30.50;45.50
13569;DHT22;6856;51.460;7.158;2022-08-19T12:57:50;30.50;45.00
13569;DHT22;6856;51.460;7.158;2022-08-19T13:00:28;30.60;44.30
13569;DHT22;6856;51.460;7.158;2022-08-19T13:03:04;30.50;44.20
13569;DHT22;6856;51.460;7.158;2022-08-19T13:05:38;30.60;44.40
13569;DHT22;6856;51.460;7.158;2022-08-19T13:08:12;30.70;44.10
13569;DHT22;6856;51.460;7.158;2022-08-19T13:10:46;30.70;43.90
13569;DHT22;6856;51.460;7.158;2022-08-19T13:13:19;30.60;44.20
13569;DHT22;6856;51.460;7.158;2022-08-19T13:16:00;30.60;44.30
13569;DHT22;6856;51.460;7.158;2022-08-19T13:18:35;30.70;43.60
13569;DHT22;6856;51.460;7.158;2022-08-19T13:21:10;30.70;44.80
13569;DHT22;6856;51.460;7.158;2022-08-19T13:23:47;30.80;44.30
13569;DHT22;6856;51.460;7.158;2022-08-19T13:26:21;30.80;43.50
13569;DHT22;6856;51.460;7.158;2022-08-19T13:28:54;30.90;43.60
13569;DHT22;6856;51.460;7.158;2022-08-19T13:31:47;30.90;43.00
13569;DHT22;6856;51.460;7.158;2022-08-19T13:34:38;31.00;43.00
13569;DHT22;6856;51.460;7.158;2022-08-19T13:37:11;31.00;42.80
13569;DHT22;6856;51.460;7.158;2022-08-19T13:39:45;31.00;42.90
13569;DHT22;6856;51.460;7.158;2022-08-19T13:42:19;31.00;42.40
13569;DHT22;6856;51.460;7.158;2022-08-19T13:44:57;31.00;42.70
13569;DHT22;6856;51.460;7.158;2022-08-19T13:47:33;31.10;42.80
13569;DHT22;6856;51.460;7.158;2022-08-19T13:50:08;31.10;43.00
13569;DHT22;6856;51.460;7.158;2022-08-19T13:52:43;31.10;42.40
13569;DHT22;6856;51.460;7.158;2022-08-19T13:55:17;31.10;42.60
13569;DHT22;6856;51.460;7.158;2022-08-19T13:57:58;31.00;42.60
13569;DHT22;6856;51.460;7.158;2022-08-19T14:00:37;30.80;42.60
13569;DHT22;6856;51.460;7.158;2022-08-19T14:03:15;31.00;41.70
13569;DHT22;6856;51.460;7.158;2022-08-19T14:05:52;31.00;42.10
13569;DHT22;6856;51.460;7.158;2022-08-19T14:08:28;31.20;42.00
13569;DHT22;6856;51.460;7.158;2022-08-19T14:11:04;31.00;41.80
13569;DHT22;6856;51.460;7.158;2022-08-19T14:13:37;31.00;41.60
13569;DHT22;6856;51.460;7.158;2022-08-19T14:16:13;31.00;41.90
13569;DHT22;6856;51.460;7.158;2022-08-19T14:18:48;31.00;41.80
13569;DHT22;6856;51.460;7.158;2022-08-19T14:21:23;31.00;42.10
13569;DHT22;6856;51.460;7.158;2022-08-19T14:23:57;31.00;42.60
13569;DHT22;6856;51.460;7.158;2022-08-19T14:26:31;31.00;41.80
13569;DHT22;6856;51.460;7.158;2022-08-19T14:29:05;31.00;41.80
13569;DHT22;6856;51.460;7.158;2022-08-19T14:31:39;31.10;42.30
13569;DHT22;6856;51.460;7.158;2022-08-19T14:34:16;31.10;42.00
13569;DHT22;6856;51.460;7.158;2022-08-19T14:36:50;31.20;41.80
13569;DHT22;6856;51.460;7.158;2022-08-19T14:39:24;31.20;41.80
13569;DHT22;6856;51.460;7.158;2022-08-19T14:41:58;31.20;41.60
13569;DHT22;6856;51.460;7.158;2022-08-19T14:44:31;31.20;41.50
13569;DHT22;6856;51.460;7.158;2022-08-19T14:47:06;31.20;41.30
13569;DHT22;6856;51.460;7.158;2022-08-19T14:49:42;31.20;41.50
13569;DHT22;6856;51.460;7.158;2022-08-19T14:52:19;31.10;41.30
13569;DHT22;6856;51.460;7.158;2022-08-19T14:54:53;31.10;41.50
13569;DHT22;6856;51.460;7.158;2022-08-19T14:57:26;31.00;41.40
13569;DHT22;6856;51.460;7.158;2022-08-19T15:00:00;31.00;41.40
13569;DHT22;6856;51.460;7.158;2022-08-19T15:02:33;31.00;41.10
13569;DHT22;6856;51.460;7.158;2022-08-19T15:05:09;31.00;41.20
13569;DHT22;6856;51.460;7.158;2022-08-19T15:07:42;31.00;41.60
13569;DHT22;6856;51.460;7.158;2022-08-19T15:10:16;31.10;41.40
13569;DHT22;6856;51.460;7.158;2022-08-19T15:12:51;31.10;41.50
13569;DHT22;6856;51.460;7.158;2022-08-19T15:15:26;31.10;41.00
13569;DHT22;6856;51.460;7.158;2022-08-19T15:18:00;31.10;40.80
13569;DHT22;6856;51.460;7.158;2022-08-19T15:20:35;31.10;40.70
13569;DHT22;6856;51.460;7.158;2022-08-19T15:23:13;31.10;41.20
13569;DHT22;6856;51.460;7.158;2022-08-19T15:25:47;31.00;41.30
13569;DHT22;6856;51.460;7.158;2022-08-19T15:28:27;31.00;40.60
13569;DHT22;6856;51.460;7.158;2022-08-19T15:31:02;31.00;40.50
13569;DHT22;6856;51.460;7.158;2022-08-19T15:33:37;31.00;40.50
13569;DHT22;6856;51.460;7.158;2022-08-19T15:36:14;31.00;40.50
13569;DHT22;6856;51.460;7.158;2022-08-19T15:38:49;31.00;40.60
13569;DHT22;6856;51.460;7.158;2022-08-19T15:41:28;30.90;40.60
13569;DHT22;6856;51.460;7.158;2022-08-19T15:44:05;30.90;40.80
13569;DHT22;6856;51.460;7.158;2022-08-19T15:46:47;30.90;40.90
13569;DHT22;6856;51.460;7.158;2022-08-19T15:49:21;30.70;40.90
13569;DHT22;6856;51.460;7.158;2022-08-19T15:51:56;30.70;41.10
13569;DHT22;6856;51.460;7.158;2022-08-19T15:54:31;30.70;41.40
13569;DHT22;6856;51.460;7.158;2022-08-19T15:57:05;30.60;41.20
13569;DHT22;6856;51.460;7.158;2022-08-19T16:00:10;30.60;41.00
13569;DHT22;6856;51.460;7.158;2022-08-19T16:03:01;30.60;41.10
13569;DHT22;6856;51.460;7.158;2022-08-19T16:05:52;30.50;41.30
13569;DHT22;6856;51.460;7.158;2022-08-19T16:08:45;30.50;41.70
13569;DHT22;6856;51.460;7.158;2022-08-19T16:11:23;30.40;41.10
13569;DHT22;6856;51.460;7.158;2022-08-19T16:14:01;30.40;41.10
13569;DHT22;6856;51.460;7.158;2022-08-19T16:16:36;30.30;40.80
13569;DHT22;6856;51.460;7.158;2022-08-19T16:19:10;30.30;41.10
13569;DHT22;6856;51.460;7.158;2022-08-19T16:21:48;30.30;40.90
13569;DHT22;6856;51.460;7.158;2022-08-19T16:24:26;30.30;40.70
13569;DHT22;6856;51.460;7.158;2022-08-19T16:27:00;30.30;40.60
13569;DHT22;6856;51.460;7.158;2022-08-19T16:29:34;30.20;40.40
13569;DHT22;6856;51.460;7.158;2022-08-19T16:32:10;30.20;40.40
13569;DHT22;6856;51.460;7.158;2022-08-19T16:34:45;30.20;40.40
13569;DHT22;6856;51.460;7.158;2022-08-19T16:37:19;30.20;40.60
13569;DHT22;6856;51.460;7.158;2022-08-19T16:39:55;30.20;40.60
13569;DHT22;6856;51.460;7.158;2022-08-19T16:42:29;30.20;40.30
13569;DHT22;6856;51.460;7.158;2022-08-19T16:45:03;30.20;40.10
13569;DHT22;6856;51.460;7.158;2022-08-19T16:47:39;30.20;40.30
13569;DHT22;6856;51.460;7.158;2022-08-19T16:50:13;30.30;40.50
13569;DHT22;6856;51.460;7.158;2022-08-19T16:52:56;30.20;40.60
13569;DHT22;6856;51.460;7.158;2022-08-19T16:55:31;30.30;40.40
13569;DHT22;6856;51.460;7.158;2022-08-19T16:58:04;30.30;39.80
13569;DHT22;6856;51.460;7.158;2022-08-19T17:00:38;30.30;40.30
13569;DHT22;6856;51.460;7.158;2022-08-19T17:03:12;30.30;40.00
13569;DHT22;6856;51.460;7.158;2022-08-19T17:05:48;30.30;39.90
13569;DHT22;6856;51.460;7.158;2022-08-19T17:08:25;30.20;39.80
13569;DHT22;6856;51.460;7.158;2022-08-19T17:11:01;30.20;40.00
13569;DHT22;6856;51.460;7.158;2022-08-19T17:13:50;30.10;40.00
13569;DHT22;6856;51.460;7.158;2022-08-19T17:16:26;30.00;40.10
13569;DHT22;6856;51.460;7.158;2022-08-19T17:19:04;30.00;40.10
13569;DHT22;6856;51.460;7.158;2022-08-19T17:21:39;29.90;40.20
13569;DHT22;6856;51.460;7.158;2022-08-19T17:24:13;29.90;40.30
13569;DHT22;6856;51.460;7.158;2022-08-19T17:26:49;29.80;40.50
13569;DHT22;6856;51.460;7.158;2022-08-19T17:29:22;29.70;40.50
13569;DHT22;6856;51.460;7.158;2022-08-19T17:31:56;29.70;40.60
13569;DHT22;6856;51.460;7.158;2022-08-19T17:34:30;29.70;41.20
13569;DHT22;6856;51.460;7.158;2022-08-19T17:37:04;29.60;41.40
13569;DHT22;6856;51.460;7.158;2022-08-19T17:39:38;29.60;41.70
13569;DHT22;6856;51.460;7.158;2022-08-19T17:42:13;29.60;41.60
13569;DHT22;6856;51.460;7.158;2022-08-19T17:44:46;29.60;41.60
13569;DHT22;6856;51.460;7.158;2022-08-19T17:47:22;29.60;41.30
13569;DHT22;6856;51.460;7.158;2022-08-19T17:49:55;29.60;41.40
13569;DHT22;6856;51.460;7.158;2022-08-19T17:52:30;29.60;41.80
13569;DHT22;6856;51.460;7.158;2022-08-19T17:55:07;29.60;41.90
13569;DHT22;6856;51.460;7.158;2022-08-19T17:57:45;29.60;41.70
13569;DHT22;6856;51.460;7.158;2022-08-19T18:00:19;29.60;41.60
13569;DHT22;6856;51.460;7.158;2022-08-19T18:02:58;29.60;41.40
13569;DHT22;6856;51.460;7.158;2022-08-19T18:05:39;29.60;41.80
13569;DHT22;6856;51.460;7.158;2022-08-19T18:08:14;29.60;41.80
13569;DHT22;6856;51.460;7.158;2022-08-19T18:10:48;29.60;41.70
13569;DHT22;6856;51.460;7.158;2022-08-19T18:13:23;29.60;41.70
13569;DHT22;6856;51.460;7.158;2022-08-19T18:15:57;29.60;41.70
13569;DHT22;6856;51.460;7.158;2022-08-19T18:18:30;29.50;41.80
13569;DHT22;6856;51.460;7.158;2022-08-19T18:21:05;29.40;41.70
13569;DHT22;6856;51.460;7.158;2022-08-19T18:23:40;29.40;41.90
13569;DHT22;6856;51.460;7.158;2022-08-19T18:26:16;29.30;41.80
13569;DHT22;6856;51.460;7.158;2022-08-19T18:28:52;29.20;41.80
13569;DHT22;6856;51.460;7.158;2022-08-19T18:31:26;29.20;41.90
13569;DHT22;6856;51.460;7.158;2022-08-19T18:34:00;29.20;41.90
13569;DHT22;6856;51.460;7.158;2022-08-19T18:36:34;29.10;42.10
13569;DHT22;6856;51.460;7.158;2022-08-19T18:39:24;29.00;42.30
13569;DHT22;6856;51.460;7.158;2022-08-19T18:42:17;28.90;42.20
13569;DHT22;6856;51.460;7.158;2022-08-19T18:45:10;28.90;42.50
13569;DHT22;6856;51.460;7.158;2022-08-19T18:48:04;28.80;42.50
13569;DHT22;6856;51.460;7.158;2022-08-19T18:50:59;28.80;42.70
13569;DHT22;6856;51.460;7.158;2022-08-19T18:53:37;28.70;42.90
13569;DHT22;6856;51.460;7.158;2022-08-19T18:56:14;28.70;43.10
13569;DHT22;6856;51.460;7.158;2022-08-19T18:58:50;28.60;43.20
13569;DHT22;6856;51.460;7.158;2022-08-19T19:01:28;28.50;43.40
13569;DHT22;6856;51.460;7.158;2022-08-19T19:04:06;28.50;43.70
13569;DHT22;6856;51.460;7.158;2022-08-19T19:06:42;28.40;43.90
13569;DHT22;6856;51.460;7.158;2022-08-19T19:09:19;28.40;44.10
13569;DHT22;6856;51.460;7.158;2022-08-19T19:11:56;28.30;44.30
13569;DHT22;6856;51.460;7.158;2022-08-19T19:14:33;28.20;44.60
13569;DHT22;6856;51.460;7.158;2022-08-19T19:17:21;28.20;44.80
13569;DHT22;6856;51.460;7.158;2022-08-19T19:19:58;28.20;45.10
13569;DHT22;6856;51.460;7.158;2022-08-19T19:22:31;28.10;45.30
13569;DHT22;6856;51.460;7.158;2022-08-19T19:25:05;28.00;45.40
13569;DHT22;6856;51.460;7.158;2022-08-19T19:27:41;28.00;45.80
13569;DHT22;6856;51.460;7.158;2022-08-19T19:30:14;28.00;46.00
13569;DHT22;6856;51.460;7.158;2022-08-19T19:32:50;27.90;46.00
13569;DHT22;6856;51.460;7.158;2022-08-19T19:35:27;27.90;46.50
13569;DHT22;6856;51.460;7.158;2022-08-19T19:38:02;27.90;46.50
13569;DHT22;6856;51.460;7.158;2022-08-19T19:40:35;27.80;46.50
13569;DHT22;6856;51.460;7.158;2022-08-19T19:43:10;27.80;46.60
13569;DHT22;6856;51.460;7.158;2022-08-19T19:45:44;27.80;46.90
13569;DHT22;6856;51.460;7.158;2022-08-19T19:48:20;27.80;47.10
13569;DHT22;6856;51.460;7.158;2022-08-19T19:50:58;27.70;47.10
13569;DHT22;6856;51.460;7.158;2022-08-19T19:53:32;27.70;47.20
13569;DHT22;6856;51.460;7.158;2022-08-19T19:56:06;27.70;47.30
13569;DHT22;6856;51.460;7.158;2022-08-19T19:58:40;27.70;47.40
13569;DHT22;6856;51.460;7.158;2022-08-19T20:01:14;27.60;47.60
13569;DHT22;6856;51.460;7.158;2022-08-19T20:03:56;27.60;47.60
13569;DHT22;6856;51.460;7.158;2022-08-19T20:06:32;27.60;47.80
13569;DHT22;6856;51.460;7.158;2022-08-19T20:09:05;27.60;47.90
13569;DHT22;6856;51.460;7.158;2022-08-19T20:11:52;27.50;47.90
13569;DHT22;6856;51.460;7.158;2022-08-19T20:14:33;27.50;48.00
13569;DHT22;6856;51.460;7.158;2022-08-19T20:17:07;27.40;48.20
13569;DHT22;6856;51.460;7.158;2022-08-19T20:19:42;27.40;48.00
13569;DHT22;6856;51.460;7.158;2022-08-19T20:22:15;27.40;48.20
13569;DHT22;6856;51.460;7.158;2022-08-19T20:24:50;27.30;48.20
13569;DHT22;6856;51.460;7.158;2022-08-19T20:27:24;27.30;48.30
13569;DHT22;6856;51.460;7.158;2022-08-19T20:30:02;27.20;48.40
13569;DHT22;6856;51.460;7.158;2022-08-19T20:32:36;27.20;48.50
13569;DHT22;6856;51.460;7.158;2022-08-19T20:35:12;27.10;48.50